createdAt,value
2022-12-20T00:00:46.416Z,24.20
2022-12-20T00:03:14.562Z,24.03
2022-12-20T00:05:44.299Z,23.73
2022-12-20T00:08:12.553Z,23.97
2022-12-20T00:10:44.731Z,24.67
2022-12-20T00:13:16.177Z,25.57
2022-12-20T00:15:45.776Z,24.90
2022-12-20T00:18:13.241Z,24.07
2022-12-20T00:20:40.619Z,25.10
2022-12-20T00:23:08.195Z,25.60
2022-12-20T00:25:35.572Z,24.30
2022-12-20T00:28:04.265Z,25.97
2022-12-20T00:30:32.992Z,25.67
2022-12-20T00:33:03.933Z,26.27
2022-12-20T00:35:33.137Z,26.23
2022-12-20T00:38:03.023Z,26.20
2022-12-20T00:40:30.408Z,26.60
2022-12-20T00:43:02.210Z,27.73
2022-12-20T00:45:30.164Z,26.93
2022-12-20T00:47:59.320Z,27.03
2022-12-20T00:50:27.155Z,27.20
2022-12-20T00:52:58.885Z,27.53
2022-12-20T00:55:27.605Z,25.97
2022-12-20T00:57:57.176Z,26.50
2022-12-20T01:00:25.725Z,26.87
2022-12-20T01:02:54.352Z,27.70
2022-12-20T01:05:24.755Z,26.63
2022-12-20T01:07:56.264Z,28.90
2022-12-20T01:10:27.701Z,27.93
2022-12-20T01:13:01.453Z,26.53
2022-12-20T01:15:30.191Z,27.60
2022-12-20T01:17:57.907Z,26.63
2022-12-20T01:20:28.745Z,25.83
2022-12-20T01:22:56.760Z,26.67
2022-12-20T01:25:24.140Z,26.53
2022-12-20T01:27:57.799Z,26.40
2022-12-20T01:30:32.233Z,26.10
2022-12-20T01:33:00.639Z,25.00
2022-12-20T01:35:28.020Z,27.03
2022-12-20T01:37:58.719Z,26.60
2022-12-20T01:40:27.131Z,29.30
2022-12-20T01:42:54.591Z,29.60
2022-12-20T01:45:29.311Z,28.67
2022-12-20T01:48:03.552Z,30.30
2022-12-20T01:50:33.692Z,28.33
2022-12-20T01:53:11.538Z,29.27
2022-12-20T01:55:43.681Z,29.57
2022-12-20T01:58:12.982Z,29.37
2022-12-20T02:00:41.896Z,28.37
2022-12-20T02:03:12.724Z,28.93
2022-12-20T02:05:45.372Z,28.43
2022-12-20T02:08:15.354Z,26.63
2022-12-20T02:11:20.693Z,26.07
2022-12-20T02:14:33.049Z,26.93
2022-12-20T02:17:40.390Z,25.53
2022-12-20T02:20:13.669Z,25.20
2022-12-20T02:23:37.208Z,25.70
2022-12-20T02:26:54.055Z,25.37
2022-12-20T02:30:04.555Z,24.47
2022-12-20T02:33:11.534Z,25.70
2022-12-20T02:35:41.916Z,25.93
2022-12-20T02:38:37.502Z,25.13
2022-12-20T02:41:22.211Z,24.73
2022-12-20T02:44:34.299Z,25.47
2022-12-20T02:47:10.457Z,24.13
2022-12-20T02:49:41.363Z,25.93
2022-12-20T02:52:15.691Z,24.10
2022-12-20T02:54:46.656Z,24.33
2022-12-20T02:57:44.328Z,24.43
2022-12-20T03:00:19.498Z,24.03
2022-12-20T03:03:07.652Z,25.03
2022-12-20T03:05:44.382Z,24.17
2022-12-20T03:08:12.798Z,23.43
2022-12-20T03:10:48.858Z,24.47
2022-12-20T03:13:17.089Z,23.87
2022-12-20T03:16:01.615Z,23.50
2022-12-20T03:18:30.501Z,22.93
2022-12-20T03:21:02.800Z,23.63
2022-12-20T03:23:33.718Z,23.80
2022-12-20T03:26:02.298Z,23.00
2022-12-20T03:28:36.821Z,24.60
2022-12-20T03:31:07.510Z,23.77
2022-12-20T03:33:45.275Z,23.50
2022-12-20T03:36:12.719Z,25.43
2022-12-20T03:38:41.230Z,24.97
2022-12-20T03:41:10.230Z,24.27
2022-12-20T03:43:38.103Z,24.93
2022-12-20T03:46:06.976Z,25.70
2022-12-20T03:48:40.869Z,25.73
2022-12-20T03:51:14.233Z,26.03
2022-12-20T03:53:42.808Z,25.73
2022-12-20T03:56:11.546Z,24.63
2022-12-20T03:58:41.464Z,25.73
2022-12-20T04:01:27.193Z,25.80
2022-12-20T04:03:57.332Z,24.37
2022-12-20T04:06:26.175Z,25.67
2022-12-20T04:08:56.375Z,24.80
2022-12-20T04:11:29.906Z,25.77
2022-12-20T04:14:07.551Z,26.40
2022-12-20T04:16:37.788Z,25.10
2022-12-20T04:19:12.133Z,25.07
2022-12-20T04:21:44.400Z,25.57
2022-12-20T04:24:14.557Z,26.03
2022-12-20T04:26:53.795Z,25.50
2022-12-20T04:29:22.739Z,24.80
2022-12-20T04:31:55.630Z,25.60
2022-12-20T04:34:23.479Z,26.37
2022-12-20T04:36:54.154Z,27.03
2022-12-20T04:39:35.542Z,26.50
2022-12-20T04:42:26.650Z,25.70
2022-12-20T04:44:55.332Z,26.33
2022-12-20T04:47:27.129Z,25.43
2022-12-20T04:49:56.102Z,25.87
2022-12-20T04:52:47.951Z,26.20
2022-12-20T04:55:18.430Z,25.80
2022-12-20T04:57:46.088Z,26.07
2022-12-20T05:00:15.841Z,25.53
2022-12-20T05:02:47.020Z,25.20
2022-12-20T05:05:18.311Z,24.87
2022-12-20T05:10:48.468Z,26.23
2022-12-20T05:13:16.771Z,24.97
2022-12-20T05:15:55.826Z,25.40
2022-12-20T05:18:28.401Z,24.57
2022-12-20T05:21:26.031Z,25.47
2022-12-20T05:24:14.876Z,25.67
2022-12-20T05:27:15.784Z,26.10
2022-12-20T05:29:44.066Z,27.73
2022-12-20T05:32:12.999Z,27.07
2022-12-20T05:34:44.165Z,28.43
2022-12-20T05:37:12.604Z,28.40
2022-12-20T05:39:41.897Z,27.37
2022-12-20T05:42:20.791Z,26.80
2022-12-20T05:44:56.781Z,29.20
2022-12-20T05:47:25.742Z,28.47
2022-12-20T05:50:03.507Z,28.13
2022-12-20T05:52:38.262Z,32.33
2022-12-20T05:55:08.556Z,30.97
2022-12-20T05:57:40.562Z,28.03
2022-12-20T06:00:18.378Z,28.17
2022-12-20T06:02:53.731Z,28.30
2022-12-20T06:05:25.507Z,26.67
2022-12-20T06:07:56.240Z,29.40
2022-12-20T06:10:26.711Z,28.73
2022-12-20T06:15:43.396Z,28.93
2022-12-20T06:18:12.731Z,29.23
2022-12-20T06:20:44.390Z,31.20
2022-12-20T06:23:18.976Z,30.07
2022-12-20T06:26:01.645Z,30.23
2022-12-20T06:28:35.959Z,29.47
2022-12-20T06:31:04.201Z,29.17
2022-12-20T06:33:40.701Z,30.33
2022-12-20T06:36:09.194Z,30.40
2022-12-20T06:38:42.949Z,28.67
2022-12-20T06:41:11.587Z,30.17
2022-12-20T06:43:43.257Z,29.07
2022-12-20T06:46:13.282Z,30.10
2022-12-20T06:51:23.981Z,30.90
2022-12-20T06:53:55.977Z,30.97
2022-12-20T06:56:23.909Z,29.90
2022-12-20T06:58:52.451Z,29.97
2022-12-20T07:01:20.762Z,30.97
2022-12-20T07:03:52.194Z,29.53
2022-12-20T07:06:19.637Z,29.93
2022-12-20T07:08:51.755Z,28.93
2022-12-20T07:11:19.163Z,30.30
2022-12-20T07:13:46.572Z,29.63
2022-12-20T07:16:15.010Z,29.57
2022-12-20T07:18:43.850Z,31.07
2022-12-20T07:21:16.771Z,29.90
2022-12-20T07:23:46.908Z,29.27
2022-12-20T07:26:17.151Z,30.07
2022-12-20T07:28:46.507Z,29.67
2022-12-20T07:31:14.955Z,28.83
2022-12-20T07:33:42.921Z,30.73
2022-12-20T07:36:14.270Z,31.23
2022-12-20T07:38:44.119Z,29.47
2022-12-20T07:41:15.552Z,30.70
2022-12-20T07:43:46.515Z,29.70
2022-12-20T07:46:15.849Z,30.50
2022-12-20T07:48:44.654Z,30.30
2022-12-20T07:51:28.992Z,30.10
2022-12-20T07:54:14.909Z,31.53
2022-12-20T07:56:48.784Z,30.43
2022-12-20T07:59:26.314Z,30.27
2022-12-20T08:02:04.384Z,30.87
2022-12-20T08:04:36.965Z,29.57
2022-12-20T08:07:10.012Z,29.80
2022-12-20T08:09:44.447Z,31.53
2022-12-20T08:12:16.649Z,29.77
2022-12-20T08:14:45.296Z,30.70
2022-12-20T08:17:13.528Z,31.50
2022-12-20T08:19:43.401Z,29.90
2022-12-20T08:22:11.111Z,29.93
2022-12-20T08:24:42.822Z,29.67
2022-12-20T08:27:13.154Z,29.63
2022-12-20T08:29:45.450Z,30.13
2022-12-20T08:32:16.647Z,31.00
2022-12-20T08:34:44.619Z,31.37
2022-12-20T08:37:15.129Z,29.93
2022-12-20T08:39:45.344Z,31.03
2022-12-20T08:42:14.486Z,29.03
2022-12-20T08:44:44.849Z,30.60
2022-12-20T08:47:14.042Z,30.27
2022-12-20T08:49:47.787Z,29.40
2022-12-20T08:52:16.780Z,31.17
2022-12-20T08:54:44.203Z,29.33
2022-12-20T08:57:12.396Z,30.77
2022-12-20T08:59:42.525Z,29.00
2022-12-20T09:02:13.072Z,30.53
2022-12-20T09:04:42.673Z,29.10
2022-12-20T09:07:12.970Z,28.67
2022-12-20T09:09:43.448Z,29.27
2022-12-20T09:12:14.448Z,30.43
2022-12-20T09:14:44.609Z,30.57
2022-12-20T09:17:14.377Z,28.40
2022-12-20T09:19:42.604Z,27.53
2022-12-20T09:22:10.186Z,28.37
2022-12-20T09:24:38.247Z,29.27
2022-12-20T09:27:08.067Z,27.03
2022-12-20T09:29:36.418Z,28.13
2022-12-20T09:32:05.398Z,27.97
2022-12-20T09:34:35.070Z,26.80
2022-12-20T09:37:03.425Z,29.27
2022-12-20T09:39:33.152Z,28.03
2022-12-20T09:42:08.009Z,27.13
2022-12-20T09:44:44.108Z,27.73
2022-12-20T09:47:18.006Z,26.07
2022-12-20T09:49:50.836Z,26.37
2022-12-20T09:52:37.767Z,25.43
2022-12-20T09:55:19.544Z,25.03
2022-12-20T09:58:21.719Z,25.73
2022-12-20T10:03:35.826Z,25.50
2022-12-20T10:06:29.164Z,25.10
2022-12-20T10:09:17.143Z,25.47
2022-12-20T10:12:06.334Z,24.00
2022-12-20T10:14:45.491Z,24.13
2022-12-20T10:18:25.315Z,23.73
2022-12-20T10:21:27.579Z,23.17
2022-12-20T10:24:13.657Z,23.57
2022-12-20T10:26:45.315Z,24.43
2022-12-20T10:29:13.414Z,23.07
2022-12-20T10:31:42.316Z,22.67
2022-12-20T10:34:12.458Z,24.33
2022-12-20T10:36:40.430Z,23.40
2022-12-20T10:39:10.218Z,22.43
2022-12-20T10:41:44.801Z,24.77
2022-12-20T10:44:20.907Z,25.17
2022-12-20T10:46:59.492Z,23.07
2022-12-20T10:49:43.189Z,23.70
2022-12-20T10:52:17.620Z,24.53
2022-12-20T10:54:47.524Z,23.03
2022-12-20T10:57:32.330Z,23.77
2022-12-20T11:00:05.124Z,23.47
2022-12-20T11:02:42.111Z,23.97
2022-12-20T11:05:25.636Z,23.10
2022-12-20T11:10:50.948Z,23.33
2022-12-20T11:13:29.742Z,23.30
2022-12-20T11:16:01.539Z,23.63
2022-12-20T11:18:47.341Z,24.07
2022-12-20T11:21:28.578Z,22.27
2022-12-20T11:24:37.905Z,24.03
2022-12-20T11:27:44.931Z,23.47
2022-12-20T11:30:27.717Z,23.00
2022-12-20T11:33:28.358Z,22.97
2022-12-20T11:36:06.375Z,21.10
2022-12-20T11:39:13.725Z,23.30
2022-12-20T11:42:32.365Z,23.27
2022-12-20T11:45:25.268Z,22.10
2022-12-20T11:48:23.084Z,22.93
2022-12-20T11:51:30.048Z,21.87
2022-12-20T11:54:14.536Z,22.07
2022-12-20T11:56:50.495Z,22.43
2022-12-20T11:59:58.639Z,21.90
2022-12-20T12:02:39.070Z,21.50
2022-12-20T12:05:37.064Z,21.77
2022-12-20T12:08:18.366Z,21.63
2022-12-20T12:11:25.493Z,21.80
2022-12-20T12:14:03.348Z,21.50
2022-12-20T12:16:43.110Z,21.10
2022-12-20T12:19:15.747Z,22.07
2022-12-20T12:22:06.104Z,22.23
2022-12-20T12:24:51.240Z,22.47
2022-12-20T12:27:28.072Z,21.50
2022-12-20T12:30:00.991Z,21.67
2022-12-20T12:33:07.431Z,22.33
2022-12-20T12:36:29.854Z,21.90
2022-12-20T12:39:54.773Z,20.77
2022-12-20T12:43:04.495Z,20.77
2022-12-20T12:45:47.124Z,20.70
2022-12-20T12:48:39.859Z,20.37
2022-12-20T12:51:07.973Z,20.00
2022-12-20T12:53:46.299Z,20.27
2022-12-20T12:56:48.862Z,19.70
2022-12-20T12:59:22.508Z,20.80
2022-12-20T13:02:18.651Z,21.13
2022-12-20T13:05:18.316Z,21.20
2022-12-20T13:07:53.436Z,19.70
2022-12-20T13:10:27.938Z,20.90
2022-12-20T13:13:10.640Z,20.40
2022-12-20T13:15:44.028Z,20.37
2022-12-20T13:18:14.065Z,20.57
2022-12-20T13:20:44.725Z,21.83
2022-12-20T13:23:19.606Z,22.77
2022-12-20T13:26:00.161Z,22.53
2022-12-20T13:28:40.227Z,22.93
2022-12-20T13:31:12.134Z,22.00
2022-12-20T13:33:58.479Z,23.27
2022-12-20T13:36:37.526Z,22.90
2022-12-20T13:39:32.933Z,21.90
2022-12-20T13:42:22.790Z,23.43
2022-12-20T13:44:55.722Z,21.83
2022-12-20T13:47:36.462Z,22.00
2022-12-20T13:50:28.035Z,23.07
2022-12-20T13:52:57.781Z,22.90
2022-12-20T13:55:45.483Z,22.83
2022-12-20T13:58:36.482Z,23.10
2022-12-20T14:01:07.635Z,21.97
2022-12-20T14:03:45.217Z,21.90
2022-12-20T14:06:15.356Z,23.37
2022-12-20T14:11:34.217Z,23.67
2022-12-20T14:14:13.355Z,24.27
2022-12-20T14:16:43.397Z,22.13
2022-12-20T14:19:16.025Z,22.23
2022-12-20T14:21:46.895Z,22.27
2022-12-20T14:24:24.398Z,21.73
2022-12-20T14:26:54.992Z,21.83
2022-12-20T14:29:29.415Z,21.87
2022-12-20T14:32:00.912Z,21.10
2022-12-20T14:34:38.066Z,20.77
2022-12-20T14:37:24.747Z,20.30
2022-12-20T14:40:21.278Z,19.57
2022-12-20T14:42:52.398Z,20.13
2022-12-20T14:45:29.217Z,19.83
2022-12-20T14:48:15.801Z,21.47
2022-12-20T14:50:53.092Z,20.73
2022-12-20T14:53:31.089Z,20.63
2022-12-20T14:55:59.896Z,21.10
2022-12-20T14:58:34.939Z,20.70
2022-12-20T15:01:19.154Z,19.93
2022-12-20T15:03:59.587Z,20.70
2022-12-20T15:06:57.489Z,19.93
2022-12-20T15:09:27.940Z,20.87
2022-12-20T15:11:57.951Z,20.90
2022-12-20T15:14:48.431Z,20.77
2022-12-20T15:17:17.876Z,19.13
2022-12-20T15:19:45.367Z,21.00
2022-12-20T15:22:19.119Z,19.83
2022-12-20T15:24:49.369Z,20.73
2022-12-20T15:27:26.410Z,21.03
2022-12-20T15:29:57.766Z,21.03
2022-12-20T15:32:30.171Z,21.53
2022-12-20T15:34:57.829Z,20.20
2022-12-20T15:37:27.779Z,20.83
2022-12-20T15:39:57.508Z,22.47
2022-12-20T15:42:28.531Z,20.70
2022-12-20T15:45:00.981Z,21.10
2022-12-20T15:47:29.964Z,22.53
2022-12-20T15:49:59.348Z,21.87
2022-12-20T15:52:29.655Z,22.10
2022-12-20T15:54:58.431Z,22.57
2022-12-20T15:57:26.829Z,22.63
2022-12-20T16:02:44.178Z,22.77
2022-12-20T16:05:17.350Z,22.67
2022-12-20T16:07:47.879Z,20.90
2022-12-20T16:10:17.303Z,22.43
2022-12-20T16:12:48.027Z,23.80
2022-12-20T16:15:23.814Z,21.50
2022-12-20T16:17:55.001Z,22.07
2022-12-20T16:20:23.445Z,22.63
2022-12-20T16:23:03.303Z,22.23
2022-12-20T16:25:36.835Z,22.10
2022-12-20T16:28:04.489Z,31.25
2022-12-20T16:30:33.153Z,33.07
2022-12-20T16:33:03.993Z,32.27
2022-12-20T16:35:37.954Z,29.20
2022-12-20T16:38:08.152Z,30.20
2022-12-20T16:40:38.384Z,27.13
2022-12-20T16:43:18.564Z,26.93
2022-12-20T16:45:48.898Z,22.57
2022-12-20T16:48:26.562Z,22.50
2022-12-20T16:50:55.317Z,22.30
2022-12-20T16:53:48.234Z,22.67
2022-12-20T16:56:19.668Z,24.00
2022-12-20T16:59:17.985Z,22.03
2022-12-20T17:01:45.226Z,23.47
2022-12-20T17:04:17.813Z,23.00
2022-12-20T17:06:47.439Z,22.70
2022-12-20T17:09:24.826Z,24.17
2022-12-20T17:11:56.393Z,24.30
2022-12-20T17:14:25.143Z,22.67
2022-12-20T17:16:55.663Z,22.17
2022-12-20T17:19:24.750Z,22.07
2022-12-20T17:24:38.972Z,20.53
2022-12-20T17:27:22.048Z,22.63
2022-12-20T17:29:53.253Z,21.80
2022-12-20T17:32:24.446Z,22.77
2022-12-20T17:34:59.137Z,20.93
2022-12-20T17:37:35.866Z,21.60
2022-12-20T17:40:05.775Z,23.07
2022-12-20T17:42:33.295Z,23.57
2022-12-20T17:45:10.762Z,22.70
2022-12-20T17:50:22.932Z,22.90
2022-12-20T17:52:52.328Z,23.10
2022-12-20T17:55:28.264Z,23.13
2022-12-20T17:57:58.760Z,23.97
2022-12-20T18:00:39.060Z,24.83
2022-12-20T18:03:19.942Z,23.87
2022-12-20T18:06:05.814Z,23.10
2022-12-20T18:08:38.523Z,23.97
2022-12-20T18:11:08.790Z,23.73
2022-12-20T18:13:41.595Z,23.23
2022-12-20T18:16:11.933Z,22.73
2022-12-20T18:21:25.375Z,22.53
2022-12-20T18:23:54.941Z,24.17
2022-12-20T18:26:25.415Z,22.73
2022-12-20T18:29:00.237Z,23.07
2022-12-20T18:31:32.770Z,23.13
2022-12-20T18:34:04.030Z,23.63
2022-12-20T18:36:36.280Z,24.40
2022-12-20T18:39:07.756Z,22.93
2022-12-20T18:41:38.266Z,22.97
2022-12-20T18:44:13.955Z,22.13
2022-12-20T18:46:42.839Z,23.47
2022-12-20T18:49:15.245Z,22.97
2022-12-20T18:51:44.697Z,23.40
2022-12-20T18:54:15.855Z,23.50
2022-12-20T18:56:45.894Z,23.60
2022-12-20T18:59:14.717Z,25.00
2022-12-20T19:01:45.501Z,22.23
2022-12-20T19:04:19.315Z,21.47
2022-12-20T19:06:50.924Z,21.23
2022-12-20T19:09:22.433Z,21.33
2022-12-20T19:11:56.528Z,20.37
2022-12-20T19:14:31.299Z,20.90
2022-12-20T19:17:02.804Z,20.20
2022-12-20T19:19:30.389Z,20.70
2022-12-20T19:22:00.167Z,21.10
2022-12-20T19:24:31.002Z,19.97
2022-12-20T19:27:05.929Z,20.33
2022-12-20T19:29:34.808Z,18.80
2022-12-20T19:32:08.917Z,19.17
2022-12-20T19:34:39.026Z,20.50
2022-12-20T19:37:09.164Z,19.70
2022-12-20T19:39:47.676Z,20.60
2022-12-20T19:42:26.080Z,19.87
2022-12-20T19:44:56.512Z,20.87
2022-12-20T19:47:29.147Z,20.67
2022-12-20T19:49:59.463Z,20.93
2022-12-20T19:52:32.252Z,20.77
2022-12-20T19:55:03.987Z,19.87
2022-12-20T19:57:36.649Z,19.53
2022-12-20T20:00:09.437Z,18.73
2022-12-20T20:03:06.329Z,18.57
2022-12-20T20:05:39.312Z,19.27
2022-12-20T20:08:09.573Z,19.80
2022-12-20T20:10:39.925Z,17.20
2022-12-20T20:13:09.805Z,18.70
2022-12-20T20:15:37.600Z,18.30
2022-12-20T20:18:05.155Z,18.43
2022-12-20T20:20:35.289Z,18.80
2022-12-20T20:23:04.695Z,18.03
2022-12-20T20:25:35.951Z,19.17
2022-12-20T20:28:06.138Z,18.30
2022-12-20T20:30:34.804Z,18.93
2022-12-20T20:33:02.263Z,18.07
2022-12-20T20:35:33.081Z,17.30
2022-12-20T20:38:04.942Z,19.63
2022-12-20T20:40:36.782Z,19.23
2022-12-20T20:43:05.376Z,18.83
2022-12-20T20:45:34.163Z,18.83
2022-12-20T20:48:06.172Z,19.13
2022-12-20T20:50:35.055Z,19.40
2022-12-20T20:53:04.440Z,18.67
2022-12-20T20:55:35.724Z,18.93
2022-12-20T20:58:04.780Z,17.80
2022-12-20T21:00:34.868Z,18.10
2022-12-20T21:03:05.567Z,18.87
2022-12-20T21:08:22.387Z,18.30
2022-12-20T21:10:50.395Z,18.33
2022-12-20T21:13:18.420Z,17.77
2022-12-20T21:15:46.963Z,19.00
2022-12-20T21:18:15.440Z,19.20
2022-12-20T21:20:43.259Z,18.70
2022-12-20T21:23:12.358Z,18.30
2022-12-20T21:25:42.375Z,18.13
2022-12-20T21:28:13.954Z,19.20
2022-12-20T21:30:46.586Z,17.50
2022-12-20T21:33:20.372Z,17.33
2022-12-20T21:35:53.959Z,17.97
2022-12-20T21:38:23.089Z,17.73
2022-12-20T21:40:50.476Z,18.27
2022-12-20T21:43:20.517Z,17.73
2022-12-20T21:45:51.482Z,17.10
2022-12-20T21:48:20.021Z,16.57
2022-12-20T21:50:58.127Z,16.40
2022-12-20T21:53:28.941Z,16.20
2022-12-20T21:56:00.359Z,17.03
2022-12-20T21:58:32.279Z,15.23
2022-12-20T22:01:03.449Z,16.40
2022-12-20T22:03:35.618Z,17.10
2022-12-20T22:06:03.943Z,17.17
2022-12-20T22:08:33.075Z,16.83
2022-12-20T22:11:10.331Z,16.83
2022-12-20T22:13:41.762Z,16.60
2022-12-20T22:16:13.111Z,17.97
2022-12-20T22:18:46.008Z,16.87
2022-12-20T22:21:15.369Z,17.23
2022-12-20T22:23:46.260Z,17.07
2022-12-20T22:26:19.816Z,17.67
2022-12-20T22:28:57.338Z,16.90
2022-12-20T22:31:29.988Z,17.20
2022-12-20T22:34:07.945Z,17.63
2022-12-20T22:36:37.157Z,17.80
2022-12-20T22:39:09.696Z,17.00
2022-12-20T22:41:42.076Z,17.93
2022-12-20T22:44:10.209Z,17.60
2022-12-20T22:49:28.579Z,18.03
2022-12-20T22:54:44.799Z,18.00
2022-12-20T23:00:03.320Z,17.33
2022-12-20T23:05:15.473Z,18.37
2022-12-20T23:07:43.984Z,17.93
2022-12-20T23:10:32.574Z,17.40
2022-12-20T23:13:20.659Z,18.10
2022-12-20T23:15:50.881Z,18.47
2022-12-20T23:18:18.714Z,17.67
2022-12-20T23:21:09.585Z,18.93
2022-12-20T23:23:40.759Z,18.83
2022-12-20T23:26:13.359Z,17.50
2022-12-20T23:28:44.704Z,18.03
2022-12-20T23:31:13.273Z,17.37
2022-12-20T23:33:43.598Z,17.97
2022-12-20T23:36:13.506Z,16.90
2022-12-20T23:38:44.482Z,18.30
2022-12-20T23:41:15.310Z,19.20
2022-12-20T23:43:46.260Z,19.20
2022-12-20T23:46:17.864Z,19.43
2022-12-20T23:48:45.603Z,20.07
2022-12-20T23:51:13.331Z,21.47
2022-12-20T23:53:44.238Z,20.90
2022-12-20T23:56:33.347Z,20.67
2022-12-20T23:59:03.650Z,20.60
